Time,TemperatureF,DewpointF,PressureIn,WindDirection,WindDirectionDegrees,WindSpeedMPH,WindSpeedGustMPH,Humidity,HourlyPrecipIn,Conditions,Clouds,dailyrainin,SoftwareType,DateUTC
2013-10-20 00:01:00,54.0,47.0,29.70,WSW,238,0.0,0.0,77,0.00,,,0.00,WeatherCatV1.10B1784,2013-10-20 04:01:00,
2013-10-20 00:02:00,54.0,47.0,29.70,WSW,238,0.0,1.0,77,0.00,,,0.00,WeatherCatV1.10B1784,2013-10-20 04:02:00,
2013-10-20 00:07:00,53.9,46.9,29.70,WSW,238,0.0,0.0,77,0.00,,,0.00,WeatherCatV1.10B1784,2013-10-20 04:07:00,
2013-10-20 00:12:00,53.7,47.0,29.70,WSW,238,0.0,0.0,78,0.00,,,0.00,WeatherCatV1.10B1784,2013-10-20 04:12:00,
2013-10-20 00:17:00,53.6,46.9,29.70,WSW,238,0.0,0.0,78,0.00,,,0.00,WeatherCatV1.10B1784,2013-10-20 04:17:00,
2013-10-20 00:22:00,53.5,46.8,29.69,WSW,238,0.0,0.0,78,0.00,,,0.00,WeatherCatV1.10B1784,2013-10-20 04:22:00,
2013-10-20 00:27:00,53.5,47.1,29.69,WSW,238,0.0,0.0,79,0.00,,,0.00,WeatherCatV1.10B1784,2013-10-20 04:27:00,
2013-10-20 00:32:00,53.4,47.1,29.69,WSW,238,0.0,0.0,79,0.00,,,0.00,WeatherCatV1.10B1784,2013-10-20 04:32:00,
2013-10-20 00:37:00,53.4,47.4,29.69,WSW,238,0.0,0.0,80,0.00,,,0.00,WeatherCatV1.10B1784,2013-10-20 04:37:00,
2013-10-20 00:42:00,53.3,47.3,29.69,WSW,238,0.0,0.0,80,0.00,,,0.00,WeatherCatV1.10B1784,2013-10-20 04:42:00,
2013-10-20 00:47:00,53.3,47.6,29.69,WSW,238,0.0,0.0,81,0.00,,,0.00,WeatherCatV1.10B1784,2013-10-20 04:47:00,
2013-10-20 00:52:00,53.2,47.8,29.69,WSW,238,0.0,0.0,82,0.00,,,0.00,WeatherCatV1.10B1784,2013-10-20 04:52:00,
2013-10-20 00:57:00,53.1,47.8,29.68,SSE,166,0.0,4.0,82,0.00,,,0.00,WeatherCatV1.10B1784,2013-10-20 04:57:00,
2013-10-20 01:02:00,53.0,48.0,29.68,SSE,166,0.0,0.0,83,0.00,,,0.00,WeatherCatV1.10B1784,2013-10-20 05:02:00,
2013-10-20 01:07:00,52.8,47.8,29.68,SSE,165,0.0,0.0,83,0.00,,,0.00,WeatherCatV1.10B1784,2013-10-20 05:07:00,
2013-10-20 01:12:00,52.7,48.3,29.68,SSE,165,0.0,1.0,85,0.00,,,0.00,WeatherCatV1.10B1784,2013-10-20 05:12:00,
2013-10-20 01:17:00,52.5,48.1,29.67,SSE,163,0.0,2.0,85,0.00,,,0.00,WeatherCatV1.10B1784,2013-10-20 05:17:00,
2013-10-20 01:22:00,52.4,48.3,29.67,South,181,0.0,0.0,86,0.00,,,0.00,WeatherCatV1.10B1784,2013-10-20 05:22:00,
2013-10-20 01:27:00,52.2,48.4,29.67,South,181,0.0,0.0,87,0.00,,,0.00,WeatherCatV1.10B1784,2013-10-20 05:27:00,
2013-10-20 01:32:00,52.0,48.3,29.67,South,181,0.0,0.0,87,0.00,,,0.00,WeatherCatV1.10B1784,2013-10-20 05:32:00,
2013-10-20 01:37:00,51.9,48.2,29.67,SW,233,0.0,0.0,87,0.00,,,0.00,WeatherCatV1.10B1784,2013-10-20 05:37:00,
2013-10-20 01:42:00,51.8,48.4,29.67,SW,235,2.0,4.0,88,0.00,,,0.00,WeatherCatV1.10B1784,2013-10-20 05:42:00,
2013-10-20 01:47:00,51.9,48.5,29.67,SW,227,2.0,3.0,88,0.00,,,0.00,WeatherCatV1.10B1784,2013-10-20 05:47:00,
2013-10-20 01:52:00,51.9,48.5,29.67,SW,226,0.0,3.0,88,0.00,,,0.00,WeatherCatV1.10B1784,2013-10-20 05:52:00,
2013-10-20 01:57:00,52.0,48.6,29.67,ESE,117,0.0,2.0,88,0.00,,,0.00,WeatherCatV1.10B1784,2013-10-20 05:57:00,
2013-10-20 02:02:00,52.1,48.7,29.67,SW,225,0.0,3.0,88,0.00,,,0.00,WeatherCatV1.10B1784,2013-10-20 06:02:00,
2013-10-20 02:07:00,52.1,48.7,29.67,SW,225,0.0,4.0,88,0.00,,,0.00,WeatherCatV1.10B1784,2013-10-20 06:07:00,
2013-10-20 02:12:00,52.1,48.7,29.66,SW,225,0.0,0.0,88,0.00,,,0.00,WeatherCatV1.10B1784,2013-10-20 06:12:00,
2013-10-20 02:17:00,52.1,49.0,29.66,SE,133,0.0,1.0,89,0.00,,,0.00,WeatherCatV1.10B1784,2013-10-20 06:17:00,
2013-10-20 02:22:00,52.0,48.9,29.66,WSW,251,0.0,5.0,89,0.00,,,0.00,WeatherCatV1.10B1784,2013-10-20 06:22:00,
2013-10-20 02:27:00,51.9,48.8,29.66,WSW,249,3.0,3.0,89,0.00,,,0.00,WeatherCatV1.10B1784,2013-10-20 06:27:00,
2013-10-20 02:32:00,51.9,48.8,29.67,WSW,246,0.0,3.0,89,0.00,,,0.00,WeatherCatV1.10B1784,2013-10-20 06:32:00,
2013-10-20 02:37:00,51.9,48.8,29.66,WSW,246,1.0,4.0,89,0.00,,,0.00,WeatherCatV1.10B1784,2013-10-20 06:37:00,
2013-10-20 02:42:00,51.9,48.8,29.67,WSW,246,0.0,2.0,89,0.00,,,0.00,WeatherCatV1.10B1784,2013-10-20 06:42:00,
2013-10-20 02:47:00,52.0,48.9,29.66,WSW,246,0.0,3.0,89,0.00,,,0.00,WeatherCatV1.10B1784,2013-10-20 06:47:00,
2013-10-20 02:52:00,52.1,49.3,29.66,WSW,246,0.0,5.0,90,0.00,,,0.00,WeatherCatV1.10B1784,2013-10-20 06:52:00,
2013-10-20 02:57:00,52.1,49.3,29.66,WSW,246,0.0,3.0,90,0.00,,,0.00,WeatherCatV1.10B1784,2013-10-20 06:57:00,
2013-10-20 03:02:00,52.2,49.4,29.66,WSW,246,1.0,4.0,90,0.00,,,0.00,WeatherCatV1.10B1784,2013-10-20 07:02:00,
2013-10-20 03:07:00,52.3,49.5,29.65,WSW,246,0.0,0.0,90,0.00,,,0.00,WeatherCatV1.10B1784,2013-10-20 07:07:00,
2013-10-20 03:12:00,52.2,49.4,29.65,WSW,246,1.0,4.0,90,0.00,,,0.00,WeatherCatV1.10B1784,2013-10-20 07:12:00,
2013-10-20 03:17:00,52.2,49.4,29.65,West,267,0.0,4.0,90,0.00,,,0.00,WeatherCatV1.10B1784,2013-10-20 07:17:00,
2013-10-20 03:22:00,52.2,49.4,29.65,West,267,3.0,3.0,90,0.00,,,0.00,WeatherCatV1.10B1784,2013-10-20 07:22:00,
2013-10-20 03:27:00,52.2,49.4,29.65,West,267,0.0,3.0,90,0.00,,,0.00,WeatherCatV1.10B1784,2013-10-20 07:27:00,
2013-10-20 03:32:00,52.4,49.8,29.65,WSW,242,4.0,7.0,91,0.00,,,0.00,WeatherCatV1.10B1784,2013-10-20 07:32:00,
2013-10-20 03:37:00,52.7,49.8,29.65,SW,231,0.0,0.0,90,0.00,,,0.00,WeatherCatV1.10B1784,2013-10-20 07:37:00,
2013-10-20 03:42:00,52.9,50.0,29.66,SW,235,0.0,5.0,90,0.00,,,0.00,WeatherCatV1.10B1784,2013-10-20 07:42:00,
2013-10-20 03:47:00,52.9,50.0,29.66,SSE,159,7.0,7.0,90,0.00,,,0.00,WeatherCatV1.10B1784,2013-10-20 07:47:00,
2013-10-20 03:52:00,52.9,49.7,29.65,WSW,251,3.0,13.0,89,0.00,,,0.00,WeatherCatV1.10B1784,2013-10-20 07:52:00,
2013-10-20 03:57:00,53.0,49.8,29.66,WSW,246,3.0,4.0,89,0.00,,,0.00,WeatherCatV1.10B1784,2013-10-20 07:57:00,
2013-10-20 04:02:00,52.9,49.7,29.66,WSW,246,1.0,6.0,89,0.00,,,0.00,WeatherCatV1.10B1784,2013-10-20 08:02:00,
2013-10-20 04:07:00,52.9,49.7,29.66,WSW,242,1.0,5.0,89,0.00,,,0.00,WeatherCatV1.10B1784,2013-10-20 08:07:00,
2013-10-20 04:12:00,52.9,49.7,29.66,SW,218,0.0,4.0,89,0.00,,,0.00,WeatherCatV1.10B1784,2013-10-20 08:12:00,
2013-10-20 04:17:00,52.8,49.3,29.66,SW,230,3.0,6.0,88,0.00,,,0.00,WeatherCatV1.10B1784,2013-10-20 08:17:00,
2013-10-20 04:22:00,52.7,49.5,29.66,WSW,246,0.0,6.0,89,0.00,,,0.00,WeatherCatV1.10B1784,2013-10-20 08:22:00,
2013-10-20 04:27:00,52.7,49.5,29.66,WSW,239,4.0,4.0,89,0.00,,,0.00,WeatherCatV1.10B1784,2013-10-20 08:27:00,
2013-10-20 04:32:00,52.7,49.2,29.66,SW,235,0.0,7.0,88,0.00,,,0.00,WeatherCatV1.10B1784,2013-10-20 08:32:00,
2013-10-20 04:37:00,52.7,49.2,29.66,SW,214,0.0,4.0,88,0.00,,,0.00,WeatherCatV1.10B1784,2013-10-20 08:37:00,
2013-10-20 04:42:00,52.5,49.0,29.66,WSW,240,0.0,3.0,88,0.00,,,0.00,WeatherCatV1.10B1784,2013-10-20 08:42:00,
2013-10-20 04:47:00,52.4,49.0,29.66,WSW,242,0.0,2.0,88,0.00,,,0.00,WeatherCatV1.10B1784,2013-10-20 08:47:00,
2013-10-20 04:52:00,52.4,49.0,29.66,WSW,240,0.0,5.0,88,0.00,,,0.00,WeatherCatV1.10B1784,2013-10-20 08:52:00,
2013-10-20 04:57:00,52.5,49.0,29.66,WSW,240,3.0,4.0,88,0.00,,,0.00,WeatherCatV1.10B1784,2013-10-20 08:57:00,
2013-10-20 05:02:00,52.4,49.0,29.67,SW,235,1.0,5.0,88,0.00,,,0.00,WeatherCatV1.10B1784,2013-10-20 09:02:00,
2013-10-20 05:07:00,52.2,48.8,29.67,SW,235,2.0,5.0,88,0.00,,,0.00,WeatherCatV1.10B1784,2013-10-20 09:07:00,
2013-10-20 05:12:00,52.3,48.9,29.67,WSW,239,0.0,0.0,88,0.00,,,0.00,WeatherCatV1.10B1784,2013-10-20 09:12:00,
2013-10-20 05:17:00,52.3,48.9,29.67,WSW,237,2.0,4.0,88,0.00,,,0.00,WeatherCatV1.10B1784,2013-10-20 09:17:00,
2013-10-20 05:22:00,52.2,48.8,29.67,SW,222,4.0,6.0,88,0.00,,,0.00,WeatherCatV1.10B1784,2013-10-20 09:22:00,
2013-10-20 05:27:00,52.2,48.8,29.68,SW,227,5.0,5.0,88,0.00,,,0.00,WeatherCatV1.10B1784,2013-10-20 09:27:00,
2013-10-20 05:32:00,52.2,48.8,29.68,SW,228,2.0,5.0,88,0.00,,,0.00,WeatherCatV1.10B1784,2013-10-20 09:32:00,
2013-10-20 05:37:00,52.3,48.9,29.68,SW,228,0.0,3.0,88,0.00,,,0.00,WeatherCatV1.10B1784,2013-10-20 09:37:00,
2013-10-20 05:42:00,52.3,48.9,29.68,SW,228,0.0,0.0,88,0.00,,,0.00,WeatherCatV1.10B1784,2013-10-20 09:42:00,
2013-10-20 05:47:00,52.3,48.2,29.69,WSW,257,1.0,7.0,86,0.00,,,0.00,WeatherCatV1.10B1784,2013-10-20 09:47:00,
2013-10-20 05:52:00,52.4,47.1,29.69,West,277,0.0,7.0,82,0.00,,,0.00,WeatherCatV1.10B1784,2013-10-20 09:52:00,
2013-10-20 05:57:00,52.3,46.0,29.69,West,273,4.0,8.0,79,0.00,,,0.00,WeatherCatV1.10B1784,2013-10-20 09:57:00,
2013-10-20 06:02:00,51.8,44.8,29.69,WNW,294,2.0,8.0,77,0.00,,,0.00,WeatherCatV1.10B1784,2013-10-20 10:02:00,
2013-10-20 06:07:00,51.4,44.4,29.70,WNW,290,0.0,5.0,77,0.00,,,0.00,WeatherCatV1.10B1784,2013-10-20 10:07:00,
2013-10-20 06:12:00,50.9,43.9,29.70,NW,309,1.0,5.0,77,0.00,,,0.00,WeatherCatV1.10B1784,2013-10-20 10:12:00,
2013-10-20 06:17:00,50.4,43.1,29.70,NNW,340,0.0,10.0,76,0.00,,,0.00,WeatherCatV1.10B1784,2013-10-20 10:17:00,
2013-10-20 06:22:00,50.1,42.8,29.70,NW,313,0.0,1.0,76,0.00,,,0.00,WeatherCatV1.10B1784,2013-10-20 10:22:00,
2013-10-20 06:27:00,49.6,42.7,29.71,NW,311,0.0,3.0,77,0.00,,,0.00,WeatherCatV1.10B1784,2013-10-20 10:27:00,
2013-10-20 06:32:00,49.2,42.0,29.71,WNW,289,0.0,4.0,76,0.00,,,0.00,WeatherCatV1.10B1784,2013-10-20 10:32:00,
2013-10-20 06:37:00,49.1,41.9,29.71,WNW,288,3.0,6.0,76,0.00,,,0.00,WeatherCatV1.10B1784,2013-10-20 10:37:00,
2013-10-20 06:42:00,48.8,41.9,29.71,WSW,248,1.0,4.0,77,0.00,,,0.00,WeatherCatV1.10B1784,2013-10-20 10:42:00,
2013-10-20 06:47:00,48.6,41.7,29.72,NW,311,0.0,7.0,77,0.00,,,0.00,WeatherCatV1.10B1784,2013-10-20 10:47:00,
2013-10-20 06:52:00,48.3,41.8,29.72,WSW,257,0.0,8.0,78,0.00,,,0.00,WeatherCatV1.10B1784,2013-10-20 10:52:00,
2013-10-20 06:57:00,48.2,41.7,29.72,WNW,294,0.0,4.0,78,0.00,,,0.00,WeatherCatV1.10B1784,2013-10-20 10:57:00,
2013-10-20 07:02:00,47.9,41.7,29.72,WNW,293,0.0,2.0,79,0.00,,,0.00,WeatherCatV1.10B1784,2013-10-20 11:02:00,
2013-10-20 07:07:00,47.5,41.3,29.73,WNW,293,1.0,3.0,79,0.00,,,0.00,WeatherCatV1.10B1784,2013-10-20 11:07:00,
2013-10-20 07:12:00,47.3,41.1,29.73,West,273,0.0,0.0,79,0.00,,,0.00,WeatherCatV1.10B1784,2013-10-20 11:12:00,
2013-10-20 07:17:00,47.2,41.3,29.73,WSW,251,0.0,4.0,80,0.00,,,0.00,WeatherCatV1.10B1784,2013-10-20 11:17:00,
2013-10-20 07:22:00,47.1,41.3,29.73,West,273,0.0,3.0,80,0.00,,,0.00,WeatherCatV1.10B1784,2013-10-20 11:22:00,
2013-10-20 07:27:00,46.9,41.1,29.73,West,262,0.0,4.0,80,0.00,,,0.00,WeatherCatV1.10B1784,2013-10-20 11:27:00,
2013-10-20 07:32:00,46.9,41.1,29.73,WNW,282,0.0,8.0,80,0.00,,,0.00,WeatherCatV1.10B1784,2013-10-20 11:32:00,
2013-10-20 07:37:00,46.9,41.1,29.74,WSW,257,3.0,6.0,80,0.00,,,0.00,WeatherCatV1.10B1784,2013-10-20 11:37:00,
2013-10-20 07:42:00,46.9,41.1,29.74,West,262,0.0,5.0,80,0.00,,,0.00,WeatherCatV1.10B1784,2013-10-20 11:42:00,
2013-10-20 07:47:00,46.9,41.1,29.75,WNW,286,0.0,9.0,80,0.00,,,0.00,WeatherCatV1.10B1784,2013-10-20 11:47:00,
2013-10-20 07:52:00,46.9,40.7,29.75,WSW,251,5.0,8.0,79,0.00,,,0.00,WeatherCatV1.10B1784,2013-10-20 11:52:00,
2013-10-20 07:57:00,47.0,40.5,29.75,West,267,2.0,6.0,78,0.00,,,0.00,WeatherCatV1.10B1784,2013-10-20 11:57:00,
2013-10-20 08:02:00,47.2,40.7,29.75,SW,235,5.0,6.0,78,0.00,,,0.00,WeatherCatV1.10B1784,2013-10-20 12:02:00,
2013-10-20 08:07:00,47.4,40.2,29.75,WSW,257,1.0,10.0,76,0.00,,,0.00,WeatherCatV1.10B1784,2013-10-20 12:07:00,
2013-10-20 08:12:00,47.6,40.4,29.75,West,273,2.0,14.0,76,0.00,,,0.00,WeatherCatV1.10B1784,2013-10-20 12:12:00,
2013-10-20 08:17:00,47.8,40.3,29.76,West,267,0.0,11.0,75,0.00,,,0.00,WeatherCatV1.10B1784,2013-10-20 12:17:00,
2013-10-20 08:22:00,48.0,40.1,29.76,West,262,8.0,9.0,74,0.00,,,0.00,WeatherCatV1.10B1784,2013-10-20 12:22:00,
2013-10-20 08:27:00,48.1,40.2,29.76,West,267,2.0,4.0,74,0.00,,,0.00,WeatherCatV1.10B1784,2013-10-20 12:27:00,
2013-10-20 08:32:00,48.3,40.4,29.76,WNW,303,2.0,6.0,74,0.00,,,0.00,WeatherCatV1.10B1784,2013-10-20 12:32:00,
2013-10-20 08:37:00,48.6,40.0,29.77,West,277,5.0,9.0,72,0.00,,,0.00,WeatherCatV1.10B1784,2013-10-20 12:37:00,
2013-10-20 08:42:00,48.9,39.9,29.77,NW,314,2.0,9.0,71,0.00,,,0.00,WeatherCatV1.10B1784,2013-10-20 12:42:00,
2013-10-20 08:47:00,49.1,40.1,29.77,West,279,3.0,14.0,71,0.00,,,0.00,WeatherCatV1.10B1784,2013-10-20 12:47:00,
2013-10-20 08:52:00,49.3,39.6,29.77,West,267,2.0,13.0,69,0.00,,,0.00,WeatherCatV1.10B1784,2013-10-20 12:52:00,
2013-10-20 08:57:00,49.5,39.8,29.78,West,276,2.0,11.0,69,0.00,,,0.00,WeatherCatV1.10B1784,2013-10-20 12:57:00,
2013-10-20 09:02:00,49.7,40.3,29.78,WNW,290,3.0,4.0,70,0.00,,,0.00,WeatherCatV1.10B1784,2013-10-20 13:02:00,
2013-10-20 09:07:00,49.8,39.7,29.78,WSW,252,3.0,10.0,68,0.00,,,0.00,WeatherCatV1.10B1784,2013-10-20 13:07:00,
2013-10-20 09:12:00,50.0,40.2,29.78,WNW,290,6.0,8.0,69,0.00,,,0.00,WeatherCatV1.10B1784,2013-10-20 13:12:00,
2013-10-20 09:17:00,50.0,39.9,29.78,WNW,283,6.0,13.0,68,0.00,,,0.00,WeatherCatV1.10B1784,2013-10-20 13:17:00,
2013-10-20 09:22:00,50.1,40.0,29.78,WNW,288,4.0,11.0,68,0.00,,,0.00,WeatherCatV1.10B1784,2013-10-20 13:22:00,
2013-10-20 09:27:00,50.4,40.6,29.78,West,262,0.0,3.0,69,0.00,,,0.00,WeatherCatV1.10B1784,2013-10-20 13:27:00,
2013-10-20 09:32:00,50.7,40.1,29.78,West,267,3.0,15.0,67,0.00,,,0.00,WeatherCatV1.10B1784,2013-10-20 13:32:00,
2013-10-20 09:37:00,50.8,40.2,29.78,NW,306,4.0,11.0,67,0.00,,,0.00,WeatherCatV1.10B1784,2013-10-20 13:37:00,
2013-10-20 09:42:00,51.0,40.4,29.78,NNW,335,9.0,13.0,67,0.00,,,0.00,WeatherCatV1.10B1784,2013-10-20 13:42:00,
2013-10-20 09:47:00,50.9,39.6,29.78,WNW,294,1.0,12.0,65,0.00,,,0.00,WeatherCatV1.10B1784,2013-10-20 13:47:00,
2013-10-20 09:52:00,51.2,40.6,29.78,NNW,338,5.0,10.0,67,0.00,,,0.00,WeatherCatV1.10B1784,2013-10-20 13:52:00,
2013-10-20 09:57:00,51.3,39.9,29.79,WSW,247,2.0,11.0,65,0.00,,,0.00,WeatherCatV1.10B1784,2013-10-20 13:57:00,
2013-10-20 10:02:00,51.5,40.1,29.79,WSW,251,1.0,8.0,65,0.00,,,0.00,WeatherCatV1.10B1784,2013-10-20 14:02:00,
2013-10-20 10:07:00,51.7,40.7,29.79,NNW,346,0.0,7.0,66,0.00,,,0.00,WeatherCatV1.10B1784,2013-10-20 14:07:00,
2013-10-20 10:12:00,52.1,40.7,29.79,West,267,3.0,18.0,65,0.00,,,0.00,WeatherCatV1.10B1784,2013-10-20 14:12:00,
2013-10-20 10:17:00,52.1,40.7,29.79,West,277,2.0,10.0,65,0.00,,,0.00,WeatherCatV1.10B1784,2013-10-20 14:17:00,
2013-10-20 10:22:00,52.3,39.7,29.79,West,281,4.0,18.0,62,0.00,,,0.00,WeatherCatV1.10B1784,2013-10-20 14:22:00,
2013-10-20 10:27:00,52.3,40.1,29.79,WNW,297,2.0,10.0,63,0.00,,,0.00,WeatherCatV1.10B1784,2013-10-20 14:27:00,
2013-10-20 10:32:00,52.6,40.4,29.79,NW,304,0.0,8.0,63,0.00,,,0.00,WeatherCatV1.10B1784,2013-10-20 14:32:00,
2013-10-20 10:37:00,52.6,39.5,29.80,WSW,257,6.0,13.0,61,0.00,,,0.00,WeatherCatV1.10B1784,2013-10-20 14:37:00,
2013-10-20 10:42:00,52.7,40.0,29.80,West,275,3.0,12.0,62,0.00,,,0.00,WeatherCatV1.10B1784,2013-10-20 14:42:00,
2013-10-20 10:47:00,53.0,40.3,29.80,West,277,2.0,9.0,62,0.00,,,0.00,WeatherCatV1.10B1784,2013-10-20 14:47:00,
2013-10-20 10:52:00,53.4,39.9,29.80,WSW,242,7.0,14.0,60,0.00,,,0.00,WeatherCatV1.10B1784,2013-10-20 14:52:00,
2013-10-20 10:57:00,53.3,39.8,29.80,West,277,4.0,8.0,60,0.00,,,0.00,WeatherCatV1.10B1784,2013-10-20 14:57:00,
2013-10-20 11:02:00,53.6,39.2,29.80,WNW,284,0.0,18.0,58,0.00,,,0.00,WeatherCatV1.10B1784,2013-10-20 15:02:00,
2013-10-20 11:07:00,53.7,38.8,29.80,NW,321,5.0,10.0,57,0.00,,,0.00,WeatherCatV1.10B1784,2013-10-20 15:07:00,
2013-10-20 11:12:00,54.0,40.4,29.80,WSW,241,9.0,9.0,60,0.00,,,0.00,WeatherCatV1.10B1784,2013-10-20 15:12:00,
2013-10-20 11:17:00,54.3,39.4,29.80,North,1,1.0,8.0,57,0.00,,,0.00,WeatherCatV1.10B1784,2013-10-20 15:17:00,
2013-10-20 11:22:00,54.6,39.7,29.81,WNW,297,3.0,13.0,57,0.00,,,0.00,WeatherCatV1.10B1784,2013-10-20 15:22:00,
2013-10-20 11:27:00,54.6,39.2,29.81,SW,223,0.0,6.0,56,0.00,,,0.00,WeatherCatV1.10B1784,2013-10-20 15:27:00,
2013-10-20 11:32:00,54.6,38.8,29.81,WSW,237,0.0,9.0,55,0.00,,,0.00,WeatherCatV1.10B1784,2013-10-20 15:32:00,
2013-10-20 11:37:00,55.2,39.3,29.81,SW,233,1.0,10.0,55,0.00,,,0.00,WeatherCatV1.10B1784,2013-10-20 15:37:00,
2013-10-20 11:42:00,55.6,40.2,29.81,WSW,252,1.0,2.0,56,0.00,,,0.00,WeatherCatV1.10B1784,2013-10-20 15:42:00,
2013-10-20 11:47:00,55.9,40.0,29.81,WSW,257,3.0,7.0,55,0.00,,,0.00,WeatherCatV1.10B1784,2013-10-20 15:47:00,
2013-10-20 11:52:00,55.7,39.3,29.81,WNW,290,2.0,13.0,54,0.00,,,0.00,WeatherCatV1.10B1784,2013-10-20 15:52:00,
2013-10-20 11:57:00,56.2,39.3,29.81,West,267,0.0,7.0,53,0.00,,,0.00,WeatherCatV1.10B1784,2013-10-20 15:57:00,
2013-10-20 12:02:00,56.3,39.4,29.81,WNW,302,3.0,6.0,53,0.00,,,0.00,WeatherCatV1.10B1784,2013-10-20 16:02:00,
2013-10-20 12:07:00,55.8,39.4,29.81,WNW,286,1.0,9.0,54,0.00,,,0.00,WeatherCatV1.10B1784,2013-10-20 16:07:00,
2013-10-20 12:12:00,55.7,39.3,29.81,WNW,296,0.0,4.0,54,0.00,,,0.00,WeatherCatV1.10B1784,2013-10-20 16:12:00,
2013-10-20 12:17:00,55.9,39.5,29.81,NW,319,2.0,9.0,54,0.00,,,0.00,WeatherCatV1.10B1784,2013-10-20 16:17:00,
2013-10-20 12:22:00,56.2,38.8,29.81,NW,311,0.0,6.0,52,0.00,,,0.00,WeatherCatV1.10B1784,2013-10-20 16:22:00,
2013-10-20 12:27:00,56.5,39.1,29.81,WSW,240,3.0,12.0,52,0.00,,,0.00,WeatherCatV1.10B1784,2013-10-20 16:27:00,
2013-10-20 12:32:00,56.5,39.1,29.81,WSW,240,3.0,11.0,52,0.00,,,0.00,WeatherCatV1.10B1784,2013-10-20 16:32:00,
2013-10-20 12:36:00,56.4,39.5,29.81,WNW,302,3.0,3.0,53,0.00,,,0.00,WeatherCatV1.10B1784,2013-10-20 16:36:00,
2013-10-20 12:41:00,56.6,38.7,29.81,WSW,246,4.0,10.0,51,0.00,,,0.00,WeatherCatV1.10B1784,2013-10-20 16:41:00,
2013-10-20 12:46:00,56.6,37.7,29.81,WSW,257,3.0,14.0,49,0.00,,,0.00,WeatherCatV1.10B1784,2013-10-20 16:46:00,
2013-10-20 12:51:00,56.8,37.8,29.81,WNW,291,13.0,15.0,49,0.00,,,0.00,WeatherCatV1.10B1784,2013-10-20 16:51:00,
2013-10-20 12:56:00,57.1,38.1,29.81,West,271,11.0,11.0,49,0.00,,,0.00,WeatherCatV1.10B1784,2013-10-20 16:56:00,
2013-10-20 13:01:00,57.6,38.6,29.81,West,273,3.0,3.0,49,0.00,,,0.00,WeatherCatV1.10B1784,2013-10-20 17:01:00,
2013-10-20 13:06:00,57.4,37.9,29.81,NW,318,2.0,10.0,48,0.00,,,0.00,WeatherCatV1.10B1784,2013-10-20 17:06:00,
2013-10-20 13:11:00,57.3,37.8,29.81,NW,316,2.0,9.0,48,0.00,,,0.00,WeatherCatV1.10B1784,2013-10-20 17:11:00,
2013-10-20 13:16:00,57.5,36.9,29.81,WNW,285,6.0,14.0,46,0.00,,,0.00,WeatherCatV1.10B1784,2013-10-20 17:16:00,
2013-10-20 13:21:00,57.2,37.2,29.81,SW,230,0.0,7.0,47,0.00,,,0.00,WeatherCatV1.10B1784,2013-10-20 17:21:00,
2013-10-20 13:26:00,57.6,37.5,29.82,West,267,2.0,5.0,47,0.00,,,0.00,WeatherCatV1.10B1784,2013-10-20 17:26:00,
2013-10-20 13:31:00,57.9,36.7,29.81,WSW,246,4.0,8.0,45,0.00,,,0.00,WeatherCatV1.10B1784,2013-10-20 17:31:00,
2013-10-20 13:36:00,57.9,36.1,29.81,WNW,292,0.0,4.0,44,0.00,,,0.00,WeatherCatV1.10B1784,2013-10-20 17:36:00,
2013-10-20 13:41:00,57.7,35.9,29.82,West,267,2.0,6.0,44,0.00,,,0.00,WeatherCatV1.10B1784,2013-10-20 17:41:00,
2013-10-20 13:46:00,58.1,37.4,29.82,NW,315,1.0,9.0,46,0.00,,,0.00,WeatherCatV1.10B1784,2013-10-20 17:46:00,
2013-10-20 13:51:00,58.7,36.8,29.82,West,273,0.0,1.0,44,0.00,,,0.00,WeatherCatV1.10B1784,2013-10-20 17:51:00,
2013-10-20 13:56:00,58.7,35.7,29.82,NW,313,2.0,5.0,42,0.00,,,0.00,WeatherCatV1.10B1784,2013-10-20 17:56:00,
2013-10-20 14:01:00,58.6,36.8,29.82,WNW,282,4.0,10.0,44,0.00,,,0.00,WeatherCatV1.10B1784,2013-10-20 18:01:00,
2013-10-20 14:06:00,57.9,36.1,29.82,NNW,334,3.0,5.0,44,0.00,,,0.00,WeatherCatV1.10B1784,2013-10-20 18:06:00,
2013-10-20 14:11:00,58.3,36.5,29.82,WSW,240,6.0,10.0,44,0.00,,,0.00,WeatherCatV1.10B1784,2013-10-20 18:11:00,
2013-10-20 14:16:00,58.9,35.8,29.82,West,274,0.0,8.0,42,0.00,,,0.00,WeatherCatV1.10B1784,2013-10-20 18:16:00,
2013-10-20 14:21:00,58.8,35.8,29.83,WSW,250,1.0,7.0,42,0.00,,,0.00,WeatherCatV1.10B1784,2013-10-20 18:21:00,
2013-10-20 14:26:00,58.7,35.1,29.83,West,262,2.0,10.0,41,0.00,,,0.00,WeatherCatV1.10B1784,2013-10-20 18:26:00,
2013-10-20 14:31:00,58.5,34.9,29.82,SW,235,4.0,9.0,41,0.00,,,0.00,WeatherCatV1.10B1784,2013-10-20 18:31:00,
2013-10-20 14:36:00,58.6,36.2,29.83,West,273,1.0,7.0,43,0.00,,,0.00,WeatherCatV1.10B1784,2013-10-20 18:36:00,
2013-10-20 14:41:00,58.6,35.6,29.83,NW,312,1.0,7.0,42,0.00,,,0.00,WeatherCatV1.10B1784,2013-10-20 18:41:00,
2013-10-20 14:46:00,58.7,36.3,29.83,WNW,286,2.0,4.0,43,0.00,,,0.00,WeatherCatV1.10B1784,2013-10-20 18:46:00,
2013-10-20 14:51:00,58.9,35.2,29.82,SW,230,4.0,11.0,41,0.00,,,0.00,WeatherCatV1.10B1784,2013-10-20 18:51:00,
2013-10-20 14:56:00,58.9,35.8,29.83,WSW,238,2.0,8.0,42,0.00,,,0.00,WeatherCatV1.10B1784,2013-10-20 18:56:00,
2013-10-20 15:01:00,59.0,35.3,29.83,WSW,250,7.0,7.0,41,0.00,,,0.00,WeatherCatV1.10B1784,2013-10-20 19:01:00,
2013-10-20 15:06:00,59.1,36.0,29.83,WNW,287,2.0,5.0,42,0.00,,,0.00,WeatherCatV1.10B1784,2013-10-20 19:06:00,
2013-10-20 15:11:00,59.3,34.3,29.83,WSW,253,4.0,6.0,39,0.00,,,0.00,WeatherCatV1.10B1784,2013-10-20 19:11:00,
2013-10-20 15:16:00,59.1,34.8,29.83,WSW,240,2.0,9.0,40,0.00,,,0.00,WeatherCatV1.10B1784,2013-10-20 19:16:00,
2013-10-20 15:21:00,59.1,35.4,29.83,WNW,282,0.0,4.0,41,0.00,,,0.00,WeatherCatV1.10B1784,2013-10-20 19:21:00,
2013-10-20 15:26:00,59.7,36.6,29.83,NNW,335,0.0,5.0,42,0.00,,,0.00,WeatherCatV1.10B1784,2013-10-20 19:26:00,
2013-10-20 15:31:00,59.7,36.0,29.84,West,262,3.0,4.0,41,0.00,,,0.00,WeatherCatV1.10B1784,2013-10-20 19:31:00,
2013-10-20 15:36:00,59.2,36.7,29.84,NNW,342,0.0,5.0,43,0.00,,,0.00,WeatherCatV1.10B1784,2013-10-20 19:36:00,
2013-10-20 15:41:00,59.2,36.1,29.84,NNW,336,0.0,4.0,42,0.00,,,0.00,WeatherCatV1.10B1784,2013-10-20 19:41:00,
2013-10-20 15:46:00,59.2,35.5,29.84,NW,325,3.0,5.0,41,0.00,,,0.00,WeatherCatV1.10B1784,2013-10-20 19:46:00,
2013-10-20 15:51:00,58.8,34.5,29.84,NNW,331,1.0,7.0,40,0.00,,,0.00,WeatherCatV1.10B1784,2013-10-20 19:51:00,
2013-10-20 15:56:00,58.5,35.5,29.84,West,279,2.0,5.0,42,0.00,,,0.00,WeatherCatV1.10B1784,2013-10-20 19:56:00,
2013-10-20 16:01:00,58.6,34.4,29.85,West,272,5.0,7.0,40,0.00,,,0.00,WeatherCatV1.10B1784,2013-10-20 20:01:00,
2013-10-20 16:06:00,59.1,34.2,29.85,NW,319,0.0,13.0,39,0.00,,,0.00,WeatherCatV1.10B1784,2013-10-20 20:06:00,
2013-10-20 16:11:00,59.0,34.1,29.85,WNW,288,2.0,6.0,39,0.00,,,0.00,WeatherCatV1.10B1784,2013-10-20 20:11:00,
2013-10-20 16:16:00,59.0,35.9,29.85,WSW,240,0.0,10.0,42,0.00,,,0.00,WeatherCatV1.10B1784,2013-10-20 20:16:00,
2013-10-20 16:21:00,58.4,35.4,29.85,WNW,282,0.0,1.0,42,0.00,,,0.00,WeatherCatV1.10B1784,2013-10-20 20:21:00,
2013-10-20 16:26:00,58.0,35.0,29.86,NW,306,3.0,3.0,42,0.00,,,0.00,WeatherCatV1.10B1784,2013-10-20 20:26:00,
2013-10-20 16:31:00,57.6,35.3,29.86,NW,308,1.0,2.0,43,0.00,,,0.00,WeatherCatV1.10B1784,2013-10-20 20:31:00,
2013-10-20 16:36:00,57.5,34.6,29.86,WSW,252,2.0,6.0,42,0.00,,,0.00,WeatherCatV1.10B1784,2013-10-20 20:36:00,
2013-10-20 16:41:00,57.7,34.8,29.86,NNW,342,0.0,5.0,42,0.00,,,0.00,WeatherCatV1.10B1784,2013-10-20 20:41:00,
2013-10-20 16:46:00,57.1,34.8,29.86,WNW,294,0.0,2.0,43,0.00,,,0.00,WeatherCatV1.10B1784,2013-10-20 20:46:00,
2013-10-20 16:51:00,56.9,34.0,29.86,NW,313,2.0,5.0,42,0.00,,,0.00,WeatherCatV1.10B1784,2013-10-20 20:51:00,
2013-10-20 16:56:00,57.1,35.4,29.87,NW,310,1.0,2.0,44,0.00,,,0.00,WeatherCatV1.10B1784,2013-10-20 20:56:00,
2013-10-20 17:01:00,56.5,34.9,29.87,NW,311,0.0,0.0,44,0.00,,,0.00,WeatherCatV1.10B1784,2013-10-20 21:01:00,
2013-10-20 17:06:00,56.1,36.1,29.86,NW,313,5.0,5.0,47,0.00,,,0.00,WeatherCatV1.10B1784,2013-10-20 21:06:00,
2013-10-20 17:11:00,56.3,34.7,29.87,WNW,285,0.0,1.0,44,0.00,,,0.00,WeatherCatV1.10B1784,2013-10-20 21:11:00,
2013-10-20 17:16:00,56.0,34.4,29.87,NNW,333,0.0,4.0,44,0.00,,,0.00,WeatherCatV1.10B1784,2013-10-20 21:16:00,
2013-10-20 17:21:00,55.7,34.7,29.87,WSW,257,0.0,1.0,45,0.00,,,0.00,WeatherCatV1.10B1784,2013-10-20 21:21:00,
2013-10-20 17:26:00,55.6,34.0,29.87,NW,306,0.0,5.0,44,0.00,,,0.00,WeatherCatV1.10B1784,2013-10-20 21:26:00,
2013-10-20 17:31:00,55.3,34.3,29.88,NW,312,0.0,6.0,45,0.00,,,0.00,WeatherCatV1.10B1784,2013-10-20 21:31:00,
2013-10-20 17:36:00,55.0,34.6,29.88,NW,312,0.0,1.0,46,0.00,,,0.00,WeatherCatV1.10B1784,2013-10-20 21:36:00,
2013-10-20 17:41:00,54.8,34.4,29.88,NW,312,0.0,0.0,46,0.00,,,0.00,WeatherCatV1.10B1784,2013-10-20 21:41:00,
2013-10-20 17:46:00,54.4,34.6,29.88,NW,312,0.0,2.0,47,0.00,,,0.00,WeatherCatV1.10B1784,2013-10-20 21:46:00,
2013-10-20 17:51:00,54.2,34.4,29.88,NW,312,3.0,3.0,47,0.00,,,0.00,WeatherCatV1.10B1784,2013-10-20 21:51:00,
2013-10-20 17:56:00,54.0,34.2,29.88,NW,312,0.0,0.0,47,0.00,,,0.00,WeatherCatV1.10B1784,2013-10-20 21:56:00,
2013-10-20 18:01:00,53.9,34.1,29.88,NW,312,0.0,3.0,47,0.00,,,0.00,WeatherCatV1.10B1784,2013-10-20 22:01:00,
2013-10-20 18:06:00,53.7,34.5,29.89,NW,312,0.0,1.0,48,0.00,,,0.00,WeatherCatV1.10B1784,2013-10-20 22:06:00,
2013-10-20 18:11:00,53.5,34.3,29.89,NW,312,0.0,0.0,48,0.00,,,0.00,WeatherCatV1.10B1784,2013-10-20 22:11:00,
2013-10-20 18:16:00,53.3,35.6,29.89,NW,312,0.0,0.0,51,0.00,,,0.00,WeatherCatV1.10B1784,2013-10-20 22:16:00,
2013-10-20 18:21:00,52.8,35.2,29.90,NW,312,0.0,0.0,51,0.00,,,0.00,WeatherCatV1.10B1784,2013-10-20 22:21:00,
2013-10-20 18:26:00,52.2,36.1,29.90,NW,312,0.0,0.0,54,0.00,,,0.00,WeatherCatV1.10B1784,2013-10-20 22:26:00,
2013-10-20 18:31:00,51.4,36.7,29.90,NW,312,0.0,0.0,57,0.00,,,0.00,WeatherCatV1.10B1784,2013-10-20 22:31:00,
2013-10-20 18:36:00,50.6,35.9,29.90,NW,312,0.0,0.0,57,0.00,,,0.00,WeatherCatV1.10B1784,2013-10-20 22:36:00,
2013-10-20 18:41:00,49.5,35.8,29.91,NW,312,0.0,0.0,59,0.00,,,0.00,WeatherCatV1.10B1784,2013-10-20 22:41:00,
2013-10-20 18:46:00,48.6,35.8,29.91,NW,312,0.0,0.0,61,0.00,,,0.00,WeatherCatV1.10B1784,2013-10-20 22:46:00,
2013-10-20 18:51:00,48.0,36.0,29.91,NW,312,0.0,0.0,63,0.00,,,0.00,WeatherCatV1.10B1784,2013-10-20 22:51:00,
2013-10-20 18:56:00,47.3,36.9,29.91,NW,312,0.0,0.0,67,0.00,,,0.00,WeatherCatV1.10B1784,2013-10-20 22:56:00,
2013-10-20 19:01:00,47.1,37.1,29.91,NW,312,0.0,0.0,68,0.00,,,0.00,WeatherCatV1.10B1784,2013-10-20 23:01:00,
2013-10-20 19:06:00,46.9,37.6,29.91,NW,312,0.0,0.0,70,0.00,,,0.00,WeatherCatV1.10B1784,2013-10-20 23:06:00,
2013-10-20 19:11:00,46.8,37.2,29.91,NW,312,0.0,0.0,69,0.00,,,0.00,WeatherCatV1.10B1784,2013-10-20 23:11:00,
2013-10-20 19:16:00,46.5,37.6,29.92,NW,312,0.0,0.0,71,0.00,,,0.00,WeatherCatV1.10B1784,2013-10-20 23:16:00,
2013-10-20 19:21:00,45.9,37.7,29.92,NW,312,0.0,0.0,73,0.00,,,0.00,WeatherCatV1.10B1784,2013-10-20 23:21:00,
2013-10-20 19:26:00,45.5,37.4,29.92,NW,312,0.0,0.0,73,0.00,,,0.00,WeatherCatV1.10B1784,2013-10-20 23:26:00,
2013-10-20 19:31:00,45.1,37.3,29.92,NW,312,0.0,0.0,74,0.00,,,0.00,WeatherCatV1.10B1784,2013-10-20 23:31:00,
2013-10-20 19:36:00,44.8,37.4,29.92,NW,312,0.0,0.0,75,0.00,,,0.00,WeatherCatV1.10B1784,2013-10-20 23:36:00,
2013-10-20 19:41:00,44.8,37.7,29.92,NW,312,0.0,0.0,76,0.00,,,0.00,WeatherCatV1.10B1784,2013-10-20 23:41:00,
2013-10-20 19:46:00,44.7,37.9,29.92,NW,312,0.0,0.0,77,0.00,,,0.00,WeatherCatV1.10B1784,2013-10-20 23:46:00,
2013-10-20 19:51:00,44.6,37.5,29.92,NW,312,0.0,0.0,76,0.00,,,0.00,WeatherCatV1.10B1784,2013-10-20 23:51:00,
2013-10-20 19:56:00,44.6,37.5,29.92,NW,312,0.0,0.0,76,0.00,,,0.00,WeatherCatV1.10B1784,2013-10-20 23:56:00,
2013-10-20 20:01:00,44.6,37.5,29.93,NW,312,0.0,0.0,76,0.00,,,0.00,WeatherCatV1.10B1784,2013-10-21 00:01:00,
2013-10-20 20:06:00,44.5,37.7,29.93,NW,312,0.0,0.0,77,0.00,,,0.00,WeatherCatV1.10B1784,2013-10-21 00:06:00,
2013-10-20 20:11:00,44.4,38.0,29.93,NW,312,0.0,0.0,78,0.00,,,0.00,WeatherCatV1.10B1784,2013-10-21 00:11:00,
2013-10-20 20:16:00,44.2,37.8,29.94,NW,312,0.0,0.0,78,0.00,,,0.00,WeatherCatV1.10B1784,2013-10-21 00:16:00,
2013-10-20 20:21:00,44.1,37.7,29.94,NW,312,0.0,0.0,78,0.00,,,0.00,WeatherCatV1.10B1784,2013-10-21 00:21:00,
2013-10-20 20:26:00,43.9,37.5,29.94,NW,312,0.0,0.0,78,0.00,,,0.00,WeatherCatV1.10B1784,2013-10-21 00:26:00,
2013-10-20 20:31:00,43.8,37.4,29.94,NW,312,0.0,0.0,78,0.00,,,0.00,WeatherCatV1.10B1784,2013-10-21 00:31:00,
2013-10-20 20:36:00,43.9,37.2,29.94,NW,312,0.0,0.0,77,0.00,,,0.00,WeatherCatV1.10B1784,2013-10-21 00:36:00,
2013-10-20 20:41:00,43.8,37.4,29.95,NW,312,0.0,0.0,78,0.00,,,0.00,WeatherCatV1.10B1784,2013-10-21 00:41:00,
2013-10-20 20:46:00,44.2,38.1,29.94,NW,312,0.0,0.0,79,0.00,,,0.00,WeatherCatV1.10B1784,2013-10-21 00:46:00,
2013-10-20 20:51:00,44.8,37.7,29.95,NW,312,0.0,0.0,76,0.00,,,0.00,WeatherCatV1.10B1784,2013-10-21 00:51:00,
2013-10-20 20:56:00,44.9,37.5,29.95,NW,312,0.0,0.0,75,0.00,,,0.00,WeatherCatV1.10B1784,2013-10-21 00:56:00,
2013-10-20 21:01:00,45.1,37.0,29.95,NW,312,0.0,0.0,73,0.00,,,0.00,WeatherCatV1.10B1784,2013-10-21 01:01:00,
2013-10-20 21:06:00,45.2,37.1,29.95,NW,312,0.0,0.0,73,0.00,,,0.00,WeatherCatV1.10B1784,2013-10-21 01:06:00,
2013-10-20 21:11:00,45.3,37.2,29.95,NW,312,0.0,0.0,73,0.00,,,0.00,WeatherCatV1.10B1784,2013-10-21 01:11:00,
2013-10-20 21:16:00,45.5,37.7,29.95,NW,312,0.0,0.0,74,0.00,,,0.00,WeatherCatV1.10B1784,2013-10-21 01:16:00,
2013-10-20 21:21:00,45.4,37.6,29.95,NW,312,0.0,0.0,74,0.00,,,0.00,WeatherCatV1.10B1784,2013-10-21 01:21:00,
2013-10-20 21:26:00,45.0,36.2,29.96,NW,312,0.0,0.0,71,0.00,,,0.00,WeatherCatV1.10B1784,2013-10-21 01:26:00,
2013-10-20 21:31:00,44.8,36.7,29.96,NW,312,0.0,0.0,73,0.00,,,0.00,WeatherCatV1.10B1784,2013-10-21 01:31:00,
2013-10-20 21:36:00,44.5,36.7,29.96,NW,312,0.0,0.0,74,0.00,,,0.00,WeatherCatV1.10B1784,2013-10-21 01:36:00,
2013-10-20 21:41:00,44.1,36.0,29.96,NW,312,0.0,0.0,73,0.00,,,0.00,WeatherCatV1.10B1784,2013-10-21 01:41:00,
2013-10-20 21:46:00,43.8,36.1,29.97,NW,312,0.0,0.0,74,0.00,,,0.00,WeatherCatV1.10B1784,2013-10-21 01:46:00,
2013-10-20 21:51:00,43.7,35.6,29.97,NW,312,0.0,0.0,73,0.00,,,0.00,WeatherCatV1.10B1784,2013-10-21 01:51:00,
2013-10-20 21:56:00,43.7,35.3,29.97,NW,312,0.0,0.0,72,0.00,,,0.00,WeatherCatV1.10B1784,2013-10-21 01:56:00,
2013-10-20 22:01:00,43.6,35.9,29.97,NW,312,0.0,0.0,74,0.00,,,0.00,WeatherCatV1.10B1784,2013-10-21 02:01:00,
2013-10-20 22:06:00,43.3,36.3,29.97,NW,312,0.0,0.0,76,0.00,,,0.00,WeatherCatV1.10B1784,2013-10-21 02:06:00,
2013-10-20 22:11:00,43.3,37.2,29.97,NW,312,0.0,0.0,79,0.00,,,0.00,WeatherCatV1.10B1784,2013-10-21 02:11:00,
2013-10-20 22:16:00,43.2,37.5,29.97,NW,312,0.0,0.0,80,0.00,,,0.00,WeatherCatV1.10B1784,2013-10-21 02:16:00,
2013-10-20 22:21:00,43.0,37.6,29.97,NW,312,0.0,0.0,81,0.00,,,0.00,WeatherCatV1.10B1784,2013-10-21 02:21:00,
2013-10-20 22:26:00,42.7,37.3,29.97,NW,312,0.0,0.0,81,0.00,,,0.00,WeatherCatV1.10B1784,2013-10-21 02:26:00,
2013-10-20 22:31:00,42.4,37.3,29.97,NW,312,0.0,0.0,82,0.00,,,0.00,WeatherCatV1.10B1784,2013-10-21 02:31:00,
2013-10-20 22:36:00,42.4,37.3,29.97,NW,312,0.0,0.0,82,0.00,,,0.00,WeatherCatV1.10B1784,2013-10-21 02:36:00,
2013-10-20 22:41:00,42.1,37.0,29.98,NW,312,0.0,0.0,82,0.00,,,0.00,WeatherCatV1.10B1784,2013-10-21 02:41:00,
2013-10-20 22:46:00,41.9,36.8,29.98,NW,312,0.0,0.0,82,0.00,,,0.00,WeatherCatV1.10B1784,2013-10-21 02:46:00,
2013-10-20 22:51:00,41.9,36.5,29.98,NW,312,0.0,0.0,81,0.00,,,0.00,WeatherCatV1.10B1784,2013-10-21 02:51:00,
2013-10-20 22:56:00,42.1,36.7,29.98,NW,312,0.0,0.0,81,0.00,,,0.00,WeatherCatV1.10B1784,2013-10-21 02:56:00,
2013-10-20 23:01:00,41.7,36.6,29.98,NW,312,0.0,0.0,82,0.00,,,0.00,WeatherCatV1.10B1784,2013-10-21 03:01:00,
2013-10-20 23:06:00,41.3,36.2,29.98,NW,312,0.0,0.0,82,0.00,,,0.00,WeatherCatV1.10B1784,2013-10-21 03:06:00,
2013-10-20 23:11:00,41.3,36.2,29.98,NW,312,0.0,0.0,82,0.00,,,0.00,WeatherCatV1.10B1784,2013-10-21 03:11:00,
2013-10-20 23:16:00,41.1,36.0,29.98,NW,312,0.0,0.0,82,0.00,,,0.00,WeatherCatV1.10B1784,2013-10-21 03:16:00,
2013-10-20 23:21:00,41.3,36.2,29.98,NW,312,0.0,0.0,82,0.00,,,0.00,WeatherCatV1.10B1784,2013-10-21 03:21:00,
2013-10-20 23:26:00,41.8,36.7,29.98,NW,312,0.0,0.0,82,0.00,,,0.00,WeatherCatV1.10B1784,2013-10-21 03:26:00,
2013-10-20 23:31:00,41.8,36.7,29.99,NW,312,0.0,0.0,82,0.00,,,0.00,WeatherCatV1.10B1784,2013-10-21 03:31:00,
2013-10-20 23:36:00,41.9,36.8,29.98,NW,312,0.0,0.0,82,0.00,,,0.00,WeatherCatV1.10B1784,2013-10-21 03:36:00,
2013-10-20 23:41:00,41.8,36.7,29.98,NW,312,0.0,0.0,82,0.00,,,0.00,WeatherCatV1.10B1784,2013-10-21 03:41:00,
2013-10-20 23:46:00,41.7,36.6,29.98,NW,312,0.0,0.0,82,0.00,,,0.00,WeatherCatV1.10B1784,2013-10-21 03:46:00,
2013-10-20 23:51:00,41.7,36.9,29.99,NW,312,0.0,0.0,83,0.00,,,0.00,WeatherCatV1.10B1784,2013-10-21 03:51:00,
2013-10-20 23:56:00,41.5,36.4,29.99,NW,312,0.0,0.0,82,0.00,,,0.00,WeatherCatV1.10B1784,2013-10-21 03:56:00,